createdAt,value
2023-05-01T00:02:12.340Z,2.50
2023-05-01T00:04:39.282Z,2.22
2023-05-01T00:07:06.158Z,2.10
2023-05-01T00:09:33.365Z,3.13
2023-05-01T00:12:00.314Z,2.17
2023-05-01T00:14:27.240Z,2.13
2023-05-01T00:16:54.188Z,3.05
2023-05-01T00:19:21.587Z,2.25
2023-05-01T00:21:48.929Z,2.33
2023-05-01T00:24:17.317Z,2.85
2023-05-01T00:26:44.376Z,2.13
2023-05-01T00:29:11.396Z,2.08
2023-05-01T00:31:38.383Z,3.08
2023-05-01T00:34:05.378Z,2.60
2023-05-01T00:36:32.851Z,2.10
2023-05-01T00:38:59.856Z,2.42
2023-05-01T00:41:26.831Z,2.70
2023-05-01T00:43:54.399Z,2.67
2023-05-01T00:46:21.868Z,2.83
2023-05-01T00:48:48.928Z,2.78
2023-05-01T00:51:16.041Z,2.70
2023-05-01T00:53:43.629Z,2.42
2023-05-01T00:56:11.748Z,3.20
2023-05-01T00:58:39.393Z,3.10
2023-05-01T01:01:08.986Z,3.78
2023-05-01T01:03:36.309Z,3.55
2023-05-01T01:06:11.791Z,3.70
2023-05-01T01:08:42.777Z,3.40
2023-05-01T01:11:19.918Z,3.75
2023-05-01T01:14:00.014Z,3.33
2023-05-01T01:16:36.106Z,3.47
2023-05-01T01:19:20.887Z,3.22
2023-05-01T01:21:56.043Z,3.40
2023-05-01T01:24:47.997Z,3.33
2023-05-01T01:27:23.618Z,3.35
2023-05-01T01:30:02.790Z,2.88
2023-05-01T01:32:31.796Z,2.90
2023-05-01T01:35:04.920Z,3.60
2023-05-01T01:37:41.866Z,2.75
2023-05-01T01:40:13.447Z,2.67
2023-05-01T01:43:06.828Z,2.83
2023-05-01T01:45:41.219Z,2.42
2023-05-01T01:48:12.032Z,2.30
2023-05-01T01:50:39.927Z,2.58
2023-05-01T01:53:10.337Z,2.47
2023-05-01T01:55:38.324Z,2.67
2023-05-01T01:58:07.034Z,3.15
2023-05-01T02:00:36.144Z,2.22
2023-05-01T02:03:04.030Z,3.30
2023-05-01T02:05:32.174Z,2.22
2023-05-01T02:07:59.414Z,2.65
2023-05-01T02:10:27.969Z,2.28
2023-05-01T02:12:57.026Z,2.45
2023-05-01T02:15:24.719Z,2.58
2023-05-01T02:17:52.826Z,2.63
2023-05-01T02:20:21.657Z,2.42
2023-05-01T02:22:49.749Z,3.20
2023-05-01T02:25:17.020Z,3.33
2023-05-01T02:28:01.311Z,3.40
2023-05-01T02:30:28.662Z,2.30
2023-05-01T02:32:56.567Z,2.42
2023-05-01T02:35:23.653Z,2.22
2023-05-01T02:37:51.521Z,2.10
2023-05-01T02:40:18.928Z,2.40
2023-05-01T02:42:47.210Z,2.25
2023-05-01T02:45:20.784Z,2.28
2023-05-01T02:47:51.859Z,2.10
2023-05-01T02:50:19.933Z,2.53
2023-05-01T02:52:47.685Z,2.08
2023-05-01T02:55:37.883Z,2.58
2023-05-01T02:58:04.920Z,2.42
2023-05-01T03:00:31.788Z,3.08
2023-05-01T03:02:58.909Z,2.72
2023-05-01T03:05:25.840Z,3.00
2023-05-01T03:07:53.013Z,3.55
2023-05-01T03:10:19.945Z,2.30
2023-05-01T03:12:46.991Z,2.95
2023-05-01T03:15:13.877Z,2.72
2023-05-01T03:17:40.764Z,2.55
2023-05-01T03:20:09.663Z,3.42
2023-05-01T03:22:36.952Z,3.88
2023-05-01T03:25:06.642Z,2.55
2023-05-01T03:27:33.807Z,2.80
2023-05-01T03:30:00.651Z,2.85
2023-05-01T03:32:30.005Z,2.75
2023-05-01T03:34:57.878Z,3.22
2023-05-01T03:37:26.464Z,7.70
2023-05-01T03:39:54.343Z,4.70
2023-05-01T03:42:41.773Z,3.20
2023-05-01T03:45:17.114Z,2.22
2023-05-01T03:47:44.079Z,2.40
2023-05-01T03:50:11.334Z,2.45
2023-05-01T03:52:41.016Z,3.17
2023-05-01T03:55:09.004Z,2.10
2023-05-01T03:57:40.851Z,2.40
2023-05-01T04:00:09.794Z,2.75
2023-05-01T04:02:42.614Z,2.67
2023-05-01T04:05:15.182Z,2.20
2023-05-01T04:07:47.798Z,2.70
2023-05-01T04:10:15.016Z,2.38
2023-05-01T04:12:48.977Z,2.50
2023-05-01T04:15:16.536Z,3.15
2023-05-01T04:17:44.233Z,2.88
2023-05-01T04:20:11.476Z,2.55
2023-05-01T04:22:38.847Z,2.53
2023-05-01T04:25:06.732Z,2.45
2023-05-01T04:27:33.721Z,2.50
2023-05-01T04:30:00.962Z,2.95
2023-05-01T04:32:29.419Z,2.75
2023-05-01T04:34:56.465Z,3.00
2023-05-01T04:37:23.376Z,2.28
2023-05-01T04:39:51.283Z,2.20
2023-05-01T04:42:20.705Z,2.45
2023-05-01T04:44:47.924Z,2.50
2023-05-01T04:47:15.394Z,2.47
2023-05-01T04:49:42.438Z,2.22
2023-05-01T04:52:09.582Z,2.22
2023-05-01T04:54:58.050Z,2.70
2023-05-01T04:57:27.564Z,2.85
2023-05-01T04:59:54.657Z,2.45
2023-05-01T05:02:21.931Z,3.17
2023-05-01T05:04:49.096Z,3.13
2023-05-01T05:07:17.480Z,2.47
2023-05-01T05:10:08.014Z,2.38
2023-05-01T05:12:35.725Z,2.17
2023-05-01T05:15:02.656Z,2.30
2023-05-01T05:17:30.799Z,2.60
2023-05-01T05:19:58.123Z,3.00
2023-05-01T05:22:26.345Z,2.33
2023-05-01T05:25:19.399Z,2.03
2023-05-01T05:27:46.369Z,2.22
2023-05-01T05:30:13.523Z,2.40
2023-05-01T05:32:41.063Z,2.50
2023-05-01T05:35:08.404Z,2.30
2023-05-01T05:37:35.432Z,1.85
2023-05-01T05:40:02.331Z,1.92
2023-05-01T05:42:34.866Z,2.00
2023-05-01T05:45:06.015Z,1.95
2023-05-01T05:47:33.402Z,2.42
2023-05-01T05:50:00.927Z,2.67
2023-05-01T05:52:27.927Z,2.33
2023-05-01T05:54:55.957Z,2.53
2023-05-01T05:57:23.083Z,2.88
2023-05-01T05:59:51.561Z,2.50
2023-05-01T06:02:22.775Z,1.73
2023-05-01T06:04:50.022Z,2.40
2023-05-01T06:07:19.168Z,2.08
2023-05-01T06:09:46.479Z,2.80
2023-05-01T06:12:13.480Z,2.10
2023-05-01T06:14:41.318Z,2.58
2023-05-01T06:17:09.279Z,2.30
2023-05-01T06:19:37.329Z,2.30
2023-05-01T06:22:08.480Z,2.65
2023-05-01T06:24:42.119Z,2.78
2023-05-01T06:27:11.757Z,3.78
2023-05-01T06:29:38.775Z,2.47
2023-05-01T06:32:05.987Z,2.88
2023-05-01T06:34:33.018Z,3.97
2023-05-01T06:37:00.039Z,2.35
2023-05-01T06:39:26.877Z,2.58
2023-05-01T06:41:54.056Z,2.60
2023-05-01T06:44:32.754Z,2.60
2023-05-01T06:47:01.905Z,3.13
2023-05-01T06:49:29.195Z,1.95
2023-05-01T06:51:56.159Z,2.47
2023-05-01T06:54:23.119Z,2.83
2023-05-01T06:56:50.398Z,2.50
2023-05-01T06:59:17.264Z,3.50
2023-05-01T07:01:44.336Z,3.88
2023-05-01T07:04:11.204Z,2.50
2023-05-01T07:06:38.266Z,3.10
2023-05-01T07:09:05.396Z,3.60
2023-05-01T07:11:33.040Z,3.05
2023-05-01T07:14:01.080Z,2.95
2023-05-01T07:16:28.024Z,2.70
2023-05-01T07:18:55.028Z,2.78
2023-05-01T07:21:21.868Z,3.15
2023-05-01T07:23:48.870Z,3.22
2023-05-01T07:26:15.701Z,2.33
2023-05-01T07:28:42.548Z,2.85
2023-05-01T07:31:12.667Z,3.13
2023-05-01T07:33:39.712Z,3.65
2023-05-01T07:36:06.737Z,2.60
2023-05-01T07:38:33.698Z,4.28
2023-05-01T07:41:00.575Z,2.58
2023-05-01T07:43:27.617Z,3.05
2023-05-01T07:46:00.493Z,3.13
2023-05-01T07:48:28.618Z,2.90
2023-05-01T07:50:55.674Z,3.35
2023-05-01T07:53:23.002Z,2.88
2023-05-01T07:55:49.988Z,4.10
2023-05-01T07:58:19.574Z,3.03
2023-05-01T08:00:46.601Z,3.05
2023-05-01T08:03:13.666Z,3.13
2023-05-01T08:05:42.062Z,3.17
2023-05-01T08:08:09.907Z,2.88
2023-05-01T08:10:37.227Z,3.33
2023-05-01T08:13:04.105Z,3.22
2023-05-01T08:15:31.384Z,3.72
2023-05-01T08:17:58.316Z,2.97
2023-05-01T08:20:25.448Z,2.83
2023-05-01T08:22:52.277Z,3.30
2023-05-01T08:25:19.393Z,3.60
2023-05-01T08:27:46.551Z,3.97
2023-05-01T08:30:13.567Z,3.70
2023-05-01T08:32:40.482Z,3.17
2023-05-01T08:35:29.557Z,3.28
2023-05-01T08:37:56.481Z,3.17
2023-05-01T08:40:24.389Z,3.92
2023-05-01T08:42:51.518Z,3.30
2023-05-01T08:45:19.936Z,3.75
2023-05-01T08:47:48.219Z,2.88
2023-05-01T08:50:17.887Z,2.92
2023-05-01T08:52:45.363Z,3.15
2023-05-01T08:55:15.086Z,3.63
2023-05-01T08:57:46.851Z,3.58
2023-05-01T09:00:21.321Z,3.88
2023-05-01T09:02:50.127Z,3.55
2023-05-01T09:05:18.810Z,3.95
2023-05-01T09:07:46.644Z,3.58
2023-05-01T09:10:15.504Z,3.60
2023-05-01T09:12:44.997Z,3.08
2023-05-01T09:15:12.772Z,3.67
2023-05-01T09:17:40.502Z,3.53
2023-05-01T09:20:08.560Z,3.40
2023-05-01T09:22:35.713Z,3.47
2023-05-01T09:25:03.959Z,3.42
2023-05-01T09:27:35.944Z,4.20
2023-05-01T09:30:03.485Z,3.33
2023-05-01T09:32:30.412Z,3.88
2023-05-01T09:35:14.573Z,3.83
2023-05-01T09:37:41.865Z,4.95
2023-05-01T09:40:13.709Z,4.05
2023-05-01T09:42:50.971Z,4.15
2023-05-01T09:45:19.376Z,4.65
2023-05-01T09:47:47.063Z,5.18
2023-05-01T09:50:29.866Z,4.53
2023-05-01T09:52:57.215Z,5.95
2023-05-01T09:55:25.862Z,7.07
2023-05-01T09:57:53.437Z,10.57
2023-05-01T10:00:22.380Z,7.57
2023-05-01T10:02:50.157Z,7.10
2023-05-01T10:05:18.282Z,7.18
2023-05-01T10:08:02.577Z,7.20
2023-05-01T10:10:30.070Z,7.30
2023-05-01T10:12:57.367Z,7.25
2023-05-01T10:15:36.695Z,5.93
2023-05-01T10:18:05.330Z,6.13
2023-05-01T10:20:32.949Z,6.88
2023-05-01T10:23:00.886Z,6.00
2023-05-01T10:25:27.829Z,5.78
2023-05-01T10:27:55.646Z,5.53
2023-05-01T10:30:22.825Z,5.90
2023-05-01T10:32:49.928Z,4.55
2023-05-01T10:35:21.666Z,14.35
2023-05-01T10:37:49.918Z,4.97
2023-05-01T10:40:43.944Z,4.40
2023-05-01T10:43:28.904Z,4.40
2023-05-01T10:46:21.836Z,4.88
2023-05-01T10:48:51.903Z,6.22
2023-05-01T10:51:27.737Z,4.80
2023-05-01T10:54:14.013Z,4.05
2023-05-01T10:56:43.140Z,4.13
2023-05-01T10:59:10.748Z,5.25
2023-05-01T11:01:41.686Z,4.18
2023-05-01T11:04:28.734Z,3.47
2023-05-01T11:07:02.120Z,3.53
2023-05-01T11:09:55.624Z,4.22
2023-05-01T11:12:51.959Z,4.00
2023-05-01T11:15:34.209Z,4.45
2023-05-01T11:18:02.633Z,4.75
2023-05-01T11:20:29.487Z,4.72
2023-05-01T11:22:58.031Z,4.55
2023-05-01T11:25:27.880Z,5.43
2023-05-01T11:27:56.288Z,7.20
2023-05-01T11:30:23.534Z,4.75
2023-05-01T11:32:51.307Z,5.78
2023-05-01T11:35:23.395Z,5.82
2023-05-01T11:37:56.087Z,5.40
2023-05-01T11:40:28.614Z,6.40
2023-05-01T11:43:04.222Z,8.48
2023-05-01T11:45:32.215Z,12.05
2023-05-01T11:48:02.122Z,12.75
2023-05-01T11:50:35.998Z,5.50
2023-05-01T11:55:34.650Z,7.07
2023-05-01T11:58:02.223Z,6.10
2023-05-01T12:00:35.009Z,7.40
2023-05-01T12:03:04.151Z,7.45
2023-05-01T12:05:32.496Z,7.45
2023-05-01T12:08:21.410Z,8.15
2023-05-01T12:10:50.843Z,6.28
2023-05-01T12:13:18.452Z,6.53
2023-05-01T12:15:51.310Z,8.23
2023-05-01T12:18:18.673Z,8.20
2023-05-01T12:20:47.726Z,8.50
2023-05-01T12:23:18.662Z,8.13
2023-05-01T12:25:46.210Z,8.15
2023-05-01T12:28:15.570Z,7.97
2023-05-01T12:30:43.837Z,7.93
2023-05-01T12:33:14.825Z,8.07
2023-05-01T12:35:45.387Z,9.20
2023-05-01T12:38:20.008Z,8.75
2023-05-01T12:40:58.446Z,8.48
2023-05-01T12:43:32.188Z,8.15
2023-05-01T12:45:59.692Z,7.63
2023-05-01T12:48:26.987Z,7.68
2023-05-01T12:50:57.238Z,7.72
2023-05-01T12:53:25.913Z,10.93
2023-05-01T12:55:57.659Z,7.68
2023-05-01T12:58:35.288Z,7.97
2023-05-01T13:01:02.563Z,8.68
2023-05-01T13:03:30.901Z,7.47
2023-05-01T13:06:03.541Z,7.25
2023-05-01T13:08:37.129Z,7.35
2023-05-01T13:11:17.464Z,6.85
2023-05-01T13:13:45.434Z,6.20
2023-05-01T13:16:16.362Z,6.82
2023-05-01T13:18:48.851Z,6.43
2023-05-01T13:21:17.496Z,6.85
2023-05-01T13:24:05.206Z,6.20
2023-05-01T13:26:35.524Z,6.55
2023-05-01T13:29:04.200Z,6.53
2023-05-01T13:31:32.050Z,7.47
2023-05-01T13:33:59.660Z,6.30
2023-05-01T13:36:32.388Z,6.88
2023-05-01T13:38:59.566Z,6.90
2023-05-01T13:41:27.873Z,5.95
2023-05-01T13:43:56.750Z,6.88
2023-05-01T13:46:25.060Z,6.07
2023-05-01T13:48:52.284Z,6.45
2023-05-01T13:51:27.266Z,5.68
2023-05-01T13:53:56.408Z,5.78
2023-05-01T13:56:23.255Z,5.47
2023-05-01T13:58:50.886Z,5.43
2023-05-01T14:01:20.263Z,6.03
2023-05-01T14:03:47.820Z,5.40
2023-05-01T14:06:19.973Z,6.25
2023-05-01T14:08:48.897Z,5.20
2023-05-01T14:11:15.933Z,5.85
2023-05-01T14:13:44.951Z,5.10
2023-05-01T14:16:26.026Z,6.60
2023-05-01T14:18:56.186Z,4.78
2023-05-01T14:21:24.714Z,5.40
2023-05-01T14:23:55.192Z,5.20
2023-05-01T14:26:24.222Z,4.80
2023-05-01T14:28:51.286Z,5.25
2023-05-01T14:31:31.378Z,5.43
2023-05-01T14:33:59.910Z,6.50
2023-05-01T14:36:28.627Z,6.50
2023-05-01T14:39:04.100Z,5.22
2023-05-01T14:41:34.596Z,5.38
2023-05-01T14:44:03.940Z,4.90
2023-05-01T14:46:36.381Z,5.57
2023-05-01T14:49:03.452Z,8.77
2023-05-01T14:51:32.424Z,5.78
2023-05-01T14:53:59.697Z,6.72
2023-05-01T14:56:26.601Z,6.47
2023-05-01T14:58:53.624Z,7.40
2023-05-01T15:01:20.752Z,6.63
2023-05-01T15:03:47.915Z,7.90
2023-05-01T15:06:14.892Z,6.18
2023-05-01T15:08:42.085Z,6.45
2023-05-01T15:11:09.004Z,7.13
2023-05-01T15:13:36.656Z,8.00
2023-05-01T15:16:04.050Z,6.18
2023-05-01T15:18:31.503Z,6.63
2023-05-01T15:20:58.354Z,6.25
2023-05-01T15:23:27.404Z,7.93
2023-05-01T15:25:55.037Z,21.35
2023-05-01T15:28:22.261Z,43.60
2023-05-01T15:30:49.098Z,28.67
2023-05-01T15:33:18.733Z,21.23
2023-05-01T15:35:47.032Z,11.43
2023-05-01T15:38:14.098Z,7.22
2023-05-01T15:40:43.719Z,8.85
2023-05-01T15:43:10.781Z,19.45
2023-05-01T15:45:43.362Z,25.90
2023-05-01T15:48:13.853Z,12.32
2023-05-01T15:50:41.076Z,18.35
2023-05-01T15:53:08.786Z,9.55
2023-05-01T15:55:36.858Z,12.68
2023-05-01T15:58:03.834Z,10.32
2023-05-01T16:00:31.333Z,9.10
2023-05-01T16:02:58.326Z,10.20
2023-05-01T16:05:25.692Z,10.30
2023-05-01T16:07:55.921Z,12.15
2023-05-01T16:10:23.468Z,11.57
2023-05-01T16:12:51.247Z,13.80
2023-05-01T16:15:18.426Z,11.75
2023-05-01T16:17:46.013Z,12.05
2023-05-01T16:20:14.684Z,12.68
2023-05-01T16:22:42.900Z,11.15
2023-05-01T16:25:10.890Z,13.13
2023-05-01T16:27:44.876Z,13.82
2023-05-01T16:30:16.392Z,11.85
2023-05-01T16:32:44.852Z,15.13
2023-05-01T16:35:17.722Z,13.20
2023-05-01T16:37:44.822Z,14.57
2023-05-01T16:40:17.180Z,15.77
2023-05-01T16:45:22.005Z,17.17
2023-05-01T16:47:49.140Z,13.57
2023-05-01T16:50:17.189Z,14.68
2023-05-01T16:52:44.112Z,16.90
2023-05-01T16:55:11.398Z,13.85
2023-05-01T16:57:38.227Z,13.20
2023-05-01T17:00:05.981Z,13.48
2023-05-01T17:02:33.947Z,15.43
2023-05-01T17:05:02.574Z,14.82
2023-05-01T17:07:30.007Z,14.05
2023-05-01T17:09:56.931Z,13.90
2023-05-01T17:12:24.154Z,15.75
2023-05-01T17:14:53.858Z,16.00
2023-05-01T17:17:21.558Z,16.02
2023-05-01T17:19:48.627Z,17.30
2023-05-01T17:22:15.677Z,19.38
2023-05-01T17:24:42.460Z,18.85
2023-05-01T17:27:09.483Z,18.73
2023-05-01T17:29:36.394Z,21.60
2023-05-01T17:32:04.642Z,19.73
2023-05-01T17:34:31.733Z,18.83
2023-05-01T17:36:58.625Z,17.90
2023-05-01T17:39:27.073Z,18.35
2023-05-01T17:41:54.109Z,20.85
2023-05-01T17:44:21.149Z,20.55
2023-05-01T17:46:48.097Z,18.67
2023-05-01T17:49:15.089Z,19.65
2023-05-01T17:51:42.696Z,19.33
2023-05-01T17:54:10.722Z,19.67
2023-05-01T17:56:37.689Z,23.10
2023-05-01T17:59:04.882Z,20.42
2023-05-01T18:01:31.855Z,20.05
2023-05-01T18:03:58.835Z,19.52
2023-05-01T18:06:26.078Z,22.80
2023-05-01T18:08:52.857Z,17.83
2023-05-01T18:11:19.847Z,26.92
2023-05-01T18:13:48.235Z,20.17
2023-05-01T18:16:15.984Z,22.58
2023-05-01T18:18:43.086Z,19.30
2023-05-01T18:21:10.244Z,21.05
2023-05-01T18:23:37.355Z,19.27
2023-05-01T18:26:04.167Z,18.00
2023-05-01T18:28:31.758Z,17.33
2023-05-01T18:30:58.682Z,19.92
2023-05-01T18:33:25.696Z,17.13
2023-05-01T18:35:53.031Z,21.65
2023-05-01T18:38:19.857Z,20.27
2023-05-01T18:40:47.836Z,19.05
2023-05-01T18:43:14.659Z,18.80
2023-05-01T18:45:41.642Z,22.25
2023-05-01T18:48:08.849Z,20.98
2023-05-01T18:50:36.096Z,21.90
2023-05-01T18:53:03.334Z,18.33
2023-05-01T18:55:30.389Z,21.58
2023-05-01T18:57:57.204Z,18.85
2023-05-01T19:00:26.307Z,19.73
2023-05-01T19:02:53.219Z,17.63
2023-05-01T19:05:20.497Z,17.80
2023-05-01T19:07:47.501Z,18.75
2023-05-01T19:10:14.567Z,19.08
2023-05-01T19:12:42.256Z,21.45
2023-05-01T19:15:09.939Z,18.55
2023-05-01T19:17:36.903Z,18.70
2023-05-01T19:20:04.568Z,18.35
2023-05-01T19:22:31.536Z,21.00
2023-05-01T19:25:00.277Z,21.77
2023-05-01T19:27:27.212Z,21.92
2023-05-01T19:29:54.790Z,22.48
2023-05-01T19:32:23.314Z,21.80
2023-05-01T19:34:50.636Z,23.90
2023-05-01T19:37:17.654Z,22.90
2023-05-01T19:39:44.864Z,25.33
2023-05-01T19:42:12.028Z,28.15
2023-05-01T19:44:39.086Z,29.40
2023-05-01T19:47:06.276Z,27.95
2023-05-01T19:49:33.100Z,29.25
2023-05-01T19:52:00.510Z,29.70
2023-05-01T19:54:27.333Z,26.75
2023-05-01T19:56:55.308Z,29.20
2023-05-01T19:59:22.090Z,21.80
2023-05-01T20:01:49.171Z,20.23
2023-05-01T20:04:16.376Z,18.48
2023-05-01T20:06:43.475Z,17.55
2023-05-01T20:09:10.435Z,21.02
2023-05-01T20:11:37.403Z,20.08
2023-05-01T20:14:04.211Z,17.08
2023-05-01T20:16:31.276Z,15.90
2023-05-01T20:18:58.136Z,16.70
2023-05-01T20:21:25.102Z,16.52
2023-05-01T20:23:52.477Z,15.20
2023-05-01T20:26:19.431Z,16.30
2023-05-01T20:28:47.780Z,16.80
2023-05-01T20:31:14.776Z,17.40
2023-05-01T20:33:41.720Z,16.40
2023-05-01T20:36:11.445Z,13.70
2023-05-01T20:38:43.292Z,15.43
2023-05-01T20:41:10.425Z,12.68
2023-05-01T20:43:38.838Z,12.95
2023-05-01T20:46:05.956Z,11.38
2023-05-01T20:48:33.185Z,10.52
2023-05-01T20:51:00.071Z,9.43
2023-05-01T20:53:26.958Z,9.90
2023-05-01T20:55:53.788Z,9.35
2023-05-01T20:58:20.866Z,9.13
2023-05-01T21:00:48.105Z,10.13
2023-05-01T21:03:15.498Z,11.25
2023-05-01T21:05:42.436Z,12.00
2023-05-01T21:08:09.324Z,10.30
2023-05-01T21:10:36.944Z,11.68
2023-05-01T21:13:04.028Z,10.27
2023-05-01T21:15:32.100Z,10.23
2023-05-01T21:17:59.138Z,10.93
2023-05-01T21:20:35.436Z,10.32
2023-05-01T21:23:02.718Z,14.10
2023-05-01T21:25:31.860Z,13.93
2023-05-01T21:28:03.798Z,17.33
2023-05-01T21:30:33.807Z,19.08
2023-05-01T21:33:02.006Z,19.25
2023-05-01T21:35:30.211Z,19.10
2023-05-01T21:37:57.980Z,20.25
2023-05-01T21:40:25.502Z,19.80
2023-05-01T21:42:54.045Z,20.58
2023-05-01T21:45:20.984Z,16.63
2023-05-01T21:47:51.384Z,19.40
2023-05-01T21:50:21.473Z,15.38
2023-05-01T21:52:49.834Z,12.60
2023-05-01T21:55:19.297Z,15.10
2023-05-01T21:57:46.639Z,14.02
2023-05-01T22:00:14.176Z,13.00
2023-05-01T22:02:42.996Z,14.60
2023-05-01T22:05:11.096Z,14.05
2023-05-01T22:07:41.500Z,13.63
2023-05-01T22:10:09.858Z,14.38
2023-05-01T22:12:36.869Z,14.50
2023-05-01T22:15:03.960Z,14.52
2023-05-01T22:17:30.898Z,16.13
2023-05-01T22:19:57.859Z,14.85
2023-05-01T22:22:25.027Z,13.45
2023-05-01T22:24:52.337Z,15.63
2023-05-01T22:27:19.350Z,14.75
2023-05-01T22:29:46.201Z,15.15
2023-05-01T22:32:13.392Z,14.50
2023-05-01T22:34:40.281Z,15.93
2023-05-01T22:37:07.421Z,17.15
2023-05-01T22:39:36.291Z,16.40
2023-05-01T22:42:03.995Z,16.50
2023-05-01T22:44:33.395Z,15.07
2023-05-01T22:47:00.307Z,14.25
2023-05-01T22:49:32.152Z,14.85
2023-05-01T22:51:59.151Z,14.27
2023-05-01T22:54:26.012Z,13.40
2023-05-01T22:56:53.132Z,12.73
2023-05-01T22:59:20.060Z,12.65
2023-05-01T23:01:47.128Z,13.48
2023-05-01T23:04:14.391Z,12.50
2023-05-01T23:06:41.756Z,10.88
2023-05-01T23:09:08.633Z,12.43
2023-05-01T23:11:35.587Z,11.63
2023-05-01T23:14:02.385Z,11.88
2023-05-01T23:16:32.490Z,11.60
2023-05-01T23:18:59.408Z,10.45
2023-05-01T23:21:26.348Z,8.43
2023-05-01T23:23:53.167Z,7.35
2023-05-01T23:26:29.527Z,6.85
2023-05-01T23:28:57.247Z,5.38
2023-05-01T23:31:25.953Z,5.25
2023-05-01T23:33:53.462Z,5.35
2023-05-01T23:36:21.121Z,5.07
2023-05-01T23:38:48.191Z,5.07
2023-05-01T23:41:15.347Z,4.78
2023-05-01T23:43:42.556Z,6.05
2023-05-01T23:46:09.559Z,5.05
2023-05-01T23:48:37.119Z,5.55
2023-05-01T23:51:04.485Z,5.13
2023-05-01T23:53:31.597Z,7.88
2023-05-01T23:55:58.546Z,4.88
2023-05-01T23:58:25.640Z,4.43
